Time;durP1;ratioP1;P1;durP2;ratioP2;P2;SDS_P1;SDS_P2;PMS_P1;PMS_P2;Temp;Humidity;BMP_temperature;BMP_pressure;BME280_temperature;BME280_humidity;BME280_pressure;Samples;Min_cycle;Max_cycle;Signal;HPM_P1;HPM_P2
2021/04/06 00:07:15;;;;;;;18.30;9.70;;;;;;;;;;4407898;28;20109;-57
2021/04/06 00:09:43;;;;;;;17.40;9.27;;;;;;;;;;4205350;34;20465;-58
2021/04/06 00:12:09;;;;;;;17.70;9.32;;;;;;;;;;4193777;34;20166;-59
2021/04/06 00:14:35;;;;;;;15.68;8.85;;;;;;;;;;4205457;34;20215;-59
2021/04/06 00:17:02;;;;;;;15.15;7.30;;;;;;;;;;4205386;34;20121;-59
2021/04/06 00:19:30;;;;;;;13.50;6.68;;;;;;;;;;4218101;34;20155;-60
2021/04/06 00:21:57;;;;;;;10.15;6.03;;;;;;;;;;4205544;34;20121;-58
2021/04/06 00:24:25;;;;;;;8.90;5.50;;;;;;;;;;4193772;34;20096;-58
2021/04/06 00:27:00;;;;;;;7.15;5.03;;;;;;;;;;4205217;34;20151;-58
2021/04/06 00:29:26;;;;;;;6.45;4.62;;;;;;;;;;4193860;34;20477;-58
2021/04/06 00:31:55;;;;;;;10.23;4.85;;;;;;;;;;4193906;34;20228;-58
2021/04/06 00:34:21;;;;;;;7.05;4.32;;;;;;;;;;4194008;34;20106;-58
2021/04/06 00:36:55;;;;;;;10.52;4.68;;;;;;;;;;4205125;34;20126;-59
2021/04/06 00:39:28;;;;;;;6.72;4.40;;;;;;;;;;4193638;34;20536;-58
2021/04/06 00:41:55;;;;;;;7.45;4.03;;;;;;;;;;4181976;34;20177;-58
2021/04/06 00:44:21;;;;;;;5.62;3.95;;;;;;;;;;4205273;34;20152;-59
2021/04/06 00:46:47;;;;;;;5.07;3.20;;;;;;;;;;4205018;34;20147;-57
2021/04/06 00:49:13;;;;;;;3.80;3.00;;;;;;;;;;4205183;34;20458;-58
2021/04/06 00:51:40;;;;;;;4.37;3.17;;;;;;;;;;4206668;34;20110;-59
2021/04/06 00:54:12;;;;;;;3.78;3.00;;;;;;;;;;4220268;34;20299;-58
2021/04/06 00:56:40;;;;;;;4.87;2.70;;;;;;;;;;4207101;34;20548;-58
2021/04/06 00:59:10;;;;;;;3.75;2.70;;;;;;;;;;4220040;34;20196;-57
2021/04/06 01:01:40;;;;;;;3.03;2.58;;;;;;;;;;4207021;34;20469;-58
2021/04/06 01:04:27;;;;;;;3.62;2.55;;;;;;;;;;4220157;34;20197;-57
2021/04/06 01:07:02;;;;;;;4.35;2.80;;;;;;;;;;4219721;34;20110;-58
2021/04/06 01:09:44;;;;;;;3.90;2.60;;;;;;;;;;4206782;34;20518;-59
2021/04/06 01:12:12;;;;;;;6.47;2.92;;;;;;;;;;4219739;34;20749;-59
2021/04/06 01:14:41;;;;;;;4.90;2.92;;;;;;;;;;4195547;34;20124;-59
2021/04/06 01:17:08;;;;;;;14.35;5.90;;;;;;;;;;4219686;34;20113;-58
2021/04/06 01:19:35;;;;;;;8.15;3.12;;;;;;;;;;4206884;34;20097;-58
2021/04/06 01:22:04;;;;;;;4.10;3.10;;;;;;;;;;4206719;34;20544;-58
2021/04/06 01:24:30;;;;;;;3.60;2.90;;;;;;;;;;4207217;34;20112;-58
2021/04/06 01:26:57;;;;;;;4.78;2.90;;;;;;;;;;4206561;34;20122;-57
2021/04/06 01:29:24;;;;;;;5.37;2.70;;;;;;;;;;4206806;34;20198;-58
2021/04/06 01:31:51;;;;;;;3.83;2.60;;;;;;;;;;4206680;34;20094;-59
2021/04/06 01:34:18;;;;;;;4.93;3.10;;;;;;;;;;4206966;34;20090;-58
2021/04/06 01:36:45;;;;;;;4.30;3.25;;;;;;;;;;4195205;34;20090;-58
2021/04/06 01:39:15;;;;;;;9.07;4.60;;;;;;;;;;4195339;34;20127;-57
2021/04/06 01:41:44;;;;;;;6.68;4.50;;;;;;;;;;4206503;34;20136;-58
2021/04/06 01:44:10;;;;;;;14.05;8.52;;;;;;;;;;4195467;34;20120;-57
2021/04/06 01:46:45;;;;;;;15.38;9.18;;;;;;;;;;4206241;34;20109;-58
2021/04/06 01:49:14;;;;;;;12.55;8.10;;;;;;;;;;4195954;34;20108;-58
2021/04/06 01:51:41;;;;;;;10.43;6.10;;;;;;;;;;4206498;34;20193;-58
2021/04/06 01:54:09;;;;;;;10.20;5.97;;;;;;;;;;4219510;34;20089;-59
2021/04/06 01:56:46;;;;;;;8.90;5.10;;;;;;;;;;4219395;33;20180;-58
2021/04/06 01:59:17;;;;;;;8.95;5.15;;;;;;;;;;4196857;34;20115;-58
2021/04/06 02:01:47;;;;;;;7.90;5.37;;;;;;;;;;4219315;33;20124;-58
2021/04/06 02:04:15;;;;;;;18.45;6.28;;;;;;;;;;4206588;34;20112;-59
2021/04/06 02:06:40;;;;;;;28.80;7.10;;;;;;;;;;4194954;34;20197;-57
2021/04/06 02:09:08;;;;;;;26.15;8.10;;;;;;;;;;4205465;34;20110;-57
2021/04/06 02:11:36;;;;;;;19.62;6.10;;;;;;;;;;4205261;34;20098;-58
2021/04/06 02:14:10;;;;;;;18.92;6.45;;;;;;;;;;4205379;34;20197;-58
2021/04/06 02:16:45;;;;;;;19.48;6.93;;;;;;;;;;4192591;34;20098;-57
2021/04/06 02:19:23;;;;;;;26.15;6.30;;;;;;;;;;4205466;34;20114;-59
2021/04/06 02:21:53;;;;;;;19.60;6.35;;;;;;;;;;4205414;34;20106;-59
2021/04/06 02:24:35;;;;;;;18.40;6.25;;;;;;;;;;4205518;34;20121;-60
2021/04/06 02:27:21;;;;;;;17.12;6.25;;;;;;;;;;4205530;34;20105;-60
2021/04/06 02:29:52;;;;;;;12.25;4.30;;;;;;;;;;4205255;34;20116;-58
2021/04/06 02:32:19;;;;;;;8.25;3.83;;;;;;;;;;4192295;34;20141;-56
2021/04/06 02:34:47;;;;;;;14.95;4.68;;;;;;;;;;4192439;34;20180;-56
2021/04/06 02:37:18;;;;;;;8.35;4.65;;;;;;;;;;4192469;34;20552;-57
2021/04/06 02:39:45;;;;;;;8.80;4.28;;;;;;;;;;4205286;34;20125;-55
2021/04/06 02:42:22;;;;;;;9.05;3.90;;;;;;;;;;4205049;34;20205;-56
2021/04/06 02:44:49;;;;;;;10.90;3.83;;;;;;;;;;4192326;34;20126;-58
2021/04/06 02:47:16;;;;;;;8.07;3.95;;;;;;;;;;4205152;34;20113;-58
2021/04/06 02:49:42;;;;;;;8.15;3.50;;;;;;;;;;4181150;34;20101;-57
2021/04/06 02:52:08;;;;;;;5.35;3.72;;;;;;;;;;4169338;34;20110;-59
2021/04/06 02:54:34;;;;;;;5.65;3.53;;;;;;;;;;4205016;34;20189;-58
2021/04/06 02:57:00;;;;;;;8.48;3.97;;;;;;;;;;4192283;34;20129;-57
2021/04/06 02:59:26;;;;;;;6.65;3.92;;;;;;;;;;4191993;34;20534;-59
2021/04/06 03:01:57;;;;;;;5.22;3.42;;;;;;;;;;4205145;34;20121;-60
2021/04/06 03:04:27;;;;;;;4.43;3.00;;;;;;;;;;4204968;34;20498;-59
2021/04/06 03:06:57;;;;;;;6.28;3.25;;;;;;;;;;4205726;34;20117;-61
2021/04/06 03:09:25;;;;;;;5.15;2.78;;;;;;;;;;4206225;34;20094;-60
2021/04/06 03:11:52;;;;;;;4.72;2.92;;;;;;;;;;4205680;34;20119;-56
2021/04/06 03:14:25;;;;;;;6.47;3.20;;;;;;;;;;4218288;34;20101;-60
2021/04/06 03:16:52;;;;;;;3.50;2.40;;;;;;;;;;4205918;34;20135;-59
2021/04/06 03:19:18;;;;;;;3.70;2.65;;;;;;;;;;4205781;34;20101;-56
2021/04/06 03:21:44;;;;;;;5.60;3.12;;;;;;;;;;4205638;34;20130;-59
2021/04/06 03:24:10;;;;;;;6.60;2.87;;;;;;;;;;4205867;34;20110;-59
2021/04/06 03:26:36;;;;;;;7.72;3.00;;;;;;;;;;4205411;34;20113;-58
2021/04/06 03:29:02;;;;;;;9.25;4.00;;;;;;;;;;4218830;34;20209;-59
2021/04/06 03:31:31;;;;;;;12.00;4.72;;;;;;;;;;4218725;34;20094;-58
2021/04/06 03:33:58;;;;;;;14.43;6.00;;;;;;;;;;4205633;34;20101;-59
2021/04/06 03:36:25;;;;;;;14.68;6.25;;;;;;;;;;4205729;34;20152;-59
2021/04/06 03:39:04;;;;;;;21.58;6.07;;;;;;;;;;4205833;34;20101;-57
2021/04/06 03:41:31;;;;;;;19.30;6.25;;;;;;;;;;4205301;34;20124;-60
2021/04/06 03:44:05;;;;;;;16.40;5.93;;;;;;;;;;4194309;34;20121;-61
2021/04/06 03:46:31;;;;;;;11.93;6.75;;;;;;;;;;4194287;34;20148;-63
2021/04/06 03:49:17;;;;;;;17.58;6.03;;;;;;;;;;4205816;34;20118;-60
2021/04/06 03:51:57;;;;;;;21.45;5.75;;;;;;;;;;4218304;34;20143;-61
2021/04/06 03:54:32;;;;;;;20.33;5.72;;;;;;;;;;4194164;34;20445;-60
2021/04/06 03:57:00;;;;;;;30.37;7.25;;;;;;;;;;4218381;34;20090;-61
2021/04/06 03:59:34;;;;;;;23.20;5.12;;;;;;;;;;4205537;34;20096;-58
2021/04/06 04:01:59;;;;;;;20.17;4.35;;;;;;;;;;4218548;34;20129;-60
2021/04/06 04:04:25;;;;;;;9.88;3.60;;;;;;;;;;4182432;34;20125;-60
2021/04/06 04:07:00;;;;;;;9.05;3.85;;;;;;;;;;4205084;34;20137;-60
2021/04/06 04:09:25;;;;;;;12.88;3.60;;;;;;;;;;4194975;34;20700;-60
2021/04/06 04:11:52;;;;;;;5.57;3.33;;;;;;;;;;4205185;34;20108;-60
2021/04/06 04:14:18;;;;;;;4.95;3.10;;;;;;;;;;4218240;34;20098;-61
2021/04/06 04:16:44;;;;;;;4.28;3.58;;;;;;;;;;4205243;34;20225;-60
2021/04/06 04:19:09;;;;;;;4.12;3.12;;;;;;;;;;4205198;34;20105;-60
2021/04/06 04:21:37;;;;;;;11.23;3.40;;;;;;;;;;4182184;34;20109;-60
2021/04/06 04:24:03;;;;;;;7.07;3.67;;;;;;;;;;4218126;34;20299;-61
2021/04/06 04:26:29;;;;;;;9.38;4.07;;;;;;;;;;4219284;34;20151;-60
2021/04/06 04:28:55;;;;;;;10.65;4.53;;;;;;;;;;4207250;34;20124;-61
2021/04/06 04:31:21;;;;;;;7.32;5.12;;;;;;;;;;4207051;34;20121;-60
2021/04/06 04:33:47;;;;;;;11.07;5.85;;;;;;;;;;4220274;34;20118;-60
2021/04/06 04:36:13;;;;;;;10.43;5.43;;;;;;;;;;4207052;34;20141;-60
2021/04/06 04:38:39;;;;;;;11.70;6.10;;;;;;;;;;4207253;34;20497;-60
2021/04/06 04:41:05;;;;;;;11.02;5.53;;;;;;;;;;4195431;34;20136;-60
2021/04/06 04:43:31;;;;;;;11.95;5.50;;;;;;;;;;4195851;34;20107;-60
2021/04/06 04:45:57;;;;;;;10.15;4.75;;;;;;;;;;4206941;34;20454;-60
2021/04/06 04:48:23;;;;;;;10.73;6.20;;;;;;;;;;4195856;34;20123;-60
2021/04/06 04:50:49;;;;;;;9.32;5.50;;;;;;;;;;4219896;34;20144;-60
2021/04/06 04:53:15;;;;;;;9.60;5.15;;;;;;;;;;4219973;34;20137;-61
2021/04/06 04:55:41;;;;;;;6.97;3.67;;;;;;;;;;4220158;34;20234;-61
2021/04/06 04:58:07;;;;;;;10.50;4.97;;;;;;;;;;4219858;34;20220;-60
2021/04/06 05:00:33;;;;;;;9.98;4.40;;;;;;;;;;4195444;34;20143;-60
2021/04/06 05:02:59;;;;;;;9.25;3.75;;;;;;;;;;4219835;34;20109;-60
2021/04/06 05:05:25;;;;;;;3.33;2.90;;;;;;;;;;4206884;34;20117;-60
2021/04/06 05:07:51;;;;;;;6.25;3.25;;;;;;;;;;4219633;34;20132;-60
2021/04/06 05:10:17;;;;;;;7.15;2.87;;;;;;;;;;4206880;34;20117;-60
2021/04/06 05:12:46;;;;;;;6.57;2.58;;;;;;;;;;4183969;34;20185;-60
2021/04/06 05:15:12;;;;;;;4.30;2.60;;;;;;;;;;4206934;34;20164;-60
2021/04/06 05:17:38;;;;;;;6.05;2.72;;;;;;;;;;4206777;34;20623;-60
2021/04/06 05:20:05;;;;;;;3.00;2.35;;;;;;;;;;4206708;34;20109;-60
2021/04/06 05:22:31;;;;;;;9.48;2.90;;;;;;;;;;4184130;34;20216;-60
2021/04/06 05:24:57;;;;;;;14.87;3.00;;;;;;;;;;4219749;34;20110;-60
2021/04/06 05:27:23;;;;;;;3.28;2.95;;;;;;;;;;4219636;34;20129;-60
2021/04/06 05:29:49;;;;;;;7.45;3.78;;;;;;;;;;4207041;34;20125;-60
2021/04/06 05:32:15;;;;;;;3.83;2.08;;;;;;;;;;4206541;34;20137;-60
2021/04/06 05:34:40;;;;;;;4.50;2.90;;;;;;;;;;4219993;34;20442;-60
2021/04/06 05:37:07;;;;;;;6.35;2.90;;;;;;;;;;4219053;34;20540;-61
2021/04/06 05:39:33;;;;;;;5.32;2.83;;;;;;;;;;4195508;34;20142;-60
2021/04/06 05:41:58;;;;;;;4.45;3.12;;;;;;;;;;4194916;34;20117;-61
2021/04/06 05:44:24;;;;;;;3.70;3.03;;;;;;;;;;4219546;34;20098;-59
2021/04/06 05:46:52;;;;;;;4.15;3.42;;;;;;;;;;4206609;34;20125;-60
2021/04/06 05:49:22;;;;;;;5.68;3.35;;;;;;;;;;4206913;34;20105;-60
2021/04/06 05:51:48;;;;;;;4.62;3.00;;;;;;;;;;4195073;34;20223;-61
2021/04/06 05:54:15;;;;;;;6.78;3.10;;;;;;;;;;4195364;34;20113;-61
2021/04/06 05:56:41;;;;;;;9.90;3.75;;;;;;;;;;4206455;34;20116;-61
2021/04/06 05:59:07;;;;;;;9.98;3.10;;;;;;;;;;4206862;34;20118;-60
2021/04/06 06:01:36;;;;;;;4.45;3.10;;;;;;;;;;4194942;34;20565;-61
2021/04/06 06:04:02;;;;;;;7.62;2.90;;;;;;;;;;4206422;34;20104;-61
2021/04/06 06:06:28;;;;;;;4.60;2.80;;;;;;;;;;4194886;34;20109;-61
2021/04/06 06:08:57;;;;;;;3.80;3.40;;;;;;;;;;4183524;34;20589;-61
2021/04/06 06:11:24;;;;;;;4.43;3.22;;;;;;;;;;4219481;34;20140;-60
2021/04/06 06:13:51;;;;;;;8.85;3.65;;;;;;;;;;4195145;34;20532;-60
2021/04/06 06:16:20;;;;;;;4.78;3.28;;;;;;;;;;4219496;34;20208;-61
2021/04/06 06:19:10;;;;;;;5.20;3.95;;;;;;;;;;4195079;34;20164;-61
2021/04/06 06:21:45;;;;;;;6.53;3.78;;;;;;;;;;4219171;34;20120;-60
2021/04/06 06:24:25;;;;;;;4.65;3.70;;;;;;;;;;4206729;34;20086;-60
2021/04/06 06:26:52;;;;;;;8.82;3.55;;;;;;;;;;4206411;34;20450;-60
2021/04/06 06:29:19;;;;;;;10.38;4.35;;;;;;;;;;4195088;34;20113;-60
2021/04/06 06:31:49;;;;;;;5.78;4.12;;;;;;;;;;4219268;34;20231;-60
2021/04/06 06:34:22;;;;;;;9.45;4.72;;;;;;;;;;4194571;34;20289;-60
2021/04/06 06:37:08;;;;;;;8.85;4.43;;;;;;;;;;4218933;34;20176;-60
2021/04/06 06:39:35;;;;;;;9.73;4.10;;;;;;;;;;4195588;34;20193;-60
2021/04/06 06:42:07;;;;;;;8.75;4.70;;;;;;;;;;4206037;34;20121;-60
2021/04/06 06:44:33;;;;;;;7.75;4.28;;;;;;;;;;4206339;34;20130;-61
2021/04/06 06:47:04;;;;;;;10.98;4.50;;;;;;;;;;4194418;34;20085;-60
2021/04/06 06:49:37;;;;;;;6.95;3.85;;;;;;;;;;4194044;34;20219;-61
2021/04/06 06:52:22;;;;;;;6.75;3.90;;;;;;;;;;4206880;34;20126;-60
2021/04/06 06:54:55;;;;;;;6.30;4.40;;;;;;;;;;4208076;34;20109;-60
2021/04/06 06:57:32;;;;;;;12.90;4.40;;;;;;;;;;4195389;34;20094;-60
2021/04/06 07:00:13;;;;;;;8.40;4.60;;;;;;;;;;4218938;34;20300;-60
2021/04/06 07:02:39;;;;;;;11.80;4.10;;;;;;;;;;4206096;34;20200;-60
2021/04/06 07:05:15;;;;;;;8.43;5.50;;;;;;;;;;4206122;34;20117;-60
2021/04/06 07:07:54;;;;;;;8.68;4.62;;;;;;;;;;4218806;34;20477;-60
2021/04/06 07:10:22;;;;;;;6.03;4.72;;;;;;;;;;4218732;34;20100;-60
2021/04/06 07:12:56;;;;;;;6.12;4.85;;;;;;;;;;4194561;34;20109;-59
2021/04/06 07:15:23;;;;;;;6.93;4.70;;;;;;;;;;4194502;34;20116;-60
2021/04/06 07:17:49;;;;;;;7.43;4.10;;;;;;;;;;4194340;34;20098;-60
2021/04/06 07:20:21;;;;;;;7.07;4.65;;;;;;;;;;4194486;34;20451;-61
2021/04/06 07:22:47;;;;;;;7.37;4.78;;;;;;;;;;4218902;34;20109;-60
2021/04/06 07:25:14;;;;;;;4.32;3.58;;;;;;;;;;4194355;34;20124;-61
2021/04/06 07:27:43;;;;;;;4.85;4.10;;;;;;;;;;4205755;34;20181;-58
2021/04/06 07:30:11;;;;;;;4.62;3.80;;;;;;;;;;4205752;34;20129;-60
2021/04/06 07:32:41;;;;;;;5.37;3.70;;;;;;;;;;4194332;34;20105;-60
2021/04/06 07:35:10;;;;;;;4.93;3.25;;;;;;;;;;4194612;34;20219;-59
2021/04/06 07:37:38;;;;;;;4.43;3.53;;;;;;;;;;4218669;34;20117;-59
2021/04/06 07:40:08;;;;;;;5.85;4.20;;;;;;;;;;4205577;34;20185;-58
2021/04/06 07:42:35;;;;;;;5.10;4.47;;;;;;;;;;4183599;34;20169;-60
2021/04/06 07:45:04;;;;;;;4.07;3.53;;;;;;;;;;4205878;34;20215;-60
2021/04/06 07:47:48;;;;;;;5.75;4.25;;;;;;;;;;4205658;34;20121;-61
2021/04/06 07:50:14;;;;;;;5.57;4.18;;;;;;;;;;4182675;34;20153;-60
2021/04/06 07:52:40;;;;;;;4.25;3.58;;;;;;;;;;4218335;34;20537;-60
2021/04/06 07:55:07;;;;;;;5.20;3.80;;;;;;;;;;4205699;34;20177;-61
2021/04/06 07:57:43;;;;;;;5.30;3.83;;;;;;;;;;4182640;34;20140;-60
2021/04/06 08:00:33;;;;;;;5.53;4.45;;;;;;;;;;4208455;34;20112;-60
2021/04/06 08:02:59;;;;;;;5.80;4.57;;;;;;;;;;4200234;34;20105;-59
2021/04/06 08:05:25;;;;;;;6.37;4.03;;;;;;;;;;4209797;34;20105;-59
2021/04/06 08:07:51;;;;;;;6.43;4.60;;;;;;;;;;4198437;34;20116;-61
2021/04/06 08:10:17;;;;;;;6.95;5.22;;;;;;;;;;4222886;34;20122;-60
2021/04/06 08:12:44;;;;;;;11.45;4.68;;;;;;;;;;4222841;34;20216;-60
2021/04/06 08:15:10;;;;;;;5.47;4.10;;;;;;;;;;4209983;34;20185;-61
2021/04/06 08:17:41;;;;;;;7.55;3.58;;;;;;;;;;4222705;34;20125;-59
2021/04/06 08:20:21;;;;;;;5.55;3.85;;;;;;;;;;4209924;34;20124;-60
2021/04/06 08:22:54;;;;;;;5.37;4.00;;;;;;;;;;4198101;34;20097;-61
2021/04/06 08:25:23;;;;;;;10.13;5.55;;;;;;;;;;4209964;34;20138;-60
2021/04/06 08:27:53;;;;;;;10.13;4.70;;;;;;;;;;4210095;34;20429;-60
2021/04/06 08:30:21;;;;;;;6.28;4.87;;;;;;;;;;4222588;34;20184;-60
2021/04/06 08:32:57;;;;;;;5.22;3.90;;;;;;;;;;4186385;34;20110;-58
2021/04/06 08:35:45;;;;;;;13.50;4.80;;;;;;;;;;4198030;34;20110;-60
2021/04/06 08:38:29;;;;;;;6.50;4.97;;;;;;;;;;4209566;34;20128;-61
2021/04/06 08:41:10;;;;;;;6.60;4.05;;;;;;;;;;4209500;34;20121;-61
2021/04/06 08:43:38;;;;;;;5.37;4.50;;;;;;;;;;4198303;34;20520;-60
2021/04/06 08:46:26;;;;;;;8.13;5.68;;;;;;;;;;4209471;34;20116;-60
2021/04/06 08:48:53;;;;;;;9.05;5.62;;;;;;;;;;4222537;34;20104;-60
2021/04/06 08:51:19;;;;;;;16.90;10.25;;;;;;;;;;4222607;34;20124;-59
2021/04/06 08:53:51;;;;;;;11.10;7.93;;;;;;;;;;4222745;34;20110;-58
2021/04/06 08:56:18;;;;;;;7.95;5.70;;;;;;;;;;4197975;34;20097;-61
2021/04/06 08:59:33;;;;;;;11.38;9.07;;;;;;;;;;4197807;34;20113;-62
2021/04/06 09:01:59;;;;;;;11.32;7.00;;;;;;;;;;4208101;34;20544;-59
2021/04/06 09:04:30;;;;;;;7.37;5.07;;;;;;;;;;4197895;34;20524;-60
2021/04/06 09:06:56;;;;;;;9.02;6.07;;;;;;;;;;4209404;34;20216;-60
2021/04/06 09:09:29;;;;;;;9.43;6.22;;;;;;;;;;4222479;34;20113;-59
2021/04/06 09:11:57;;;;;;;12.30;7.97;;;;;;;;;;4207776;34;20180;-59
2021/04/06 09:14:24;;;;;;;12.45;6.05;;;;;;;;;;4206975;34;20223;-60
2021/04/06 09:16:51;;;;;;;4.45;2.15;;;;;;;;;;4206879;34;20097;-60
2021/04/06 09:19:17;;;;;;;19.23;8.32;;;;;;;;;;4207112;34;20120;-60
2021/04/06 09:21:45;;;;;;;7.68;5.18;;;;;;;;;;4195604;34;20312;-60
2021/04/06 09:24:13;;;;;;;11.70;6.62;;;;;;;;;;4206829;34;20133;-60
2021/04/06 09:26:39;;;;;;;17.12;8.25;;;;;;;;;;4172857;34;20124;-61
2021/04/06 09:29:12;;;;;;;14.07;7.20;;;;;;;;;;4207102;34;20185;-59
2021/04/06 09:31:41;;;;;;;13.62;8.40;;;;;;;;;;4195450;34;20141;-60
2021/04/06 09:34:23;;;;;;;9.02;6.12;;;;;;;;;;4195469;34;20090;-60
2021/04/06 09:37:08;;;;;;;10.73;7.30;;;;;;;;;;4206396;34;20129;-61
2021/04/06 09:39:40;;;;;;;10.40;6.95;;;;;;;;;;4206969;34;20556;-63
2021/04/06 09:42:07;;;;;;;14.30;8.63;;;;;;;;;;4183954;34;20121;-63
2021/04/06 09:44:36;;;;;;;15.98;9.60;;;;;;;;;;4219533;34;20125;-60
2021/04/06 09:47:10;;;;;;;12.95;8.45;;;;;;;;;;4195552;34;20106;-59
2021/04/06 09:49:47;;;;;;;11.73;4.60;;;;;;;;;;4219603;34;20146;-60
2021/04/06 09:52:19;;;;;;;11.77;7.10;;;;;;;;;;4195886;34;20106;-61
2021/04/06 09:54:49;;;;;;;28.83;19.10;;;;;;;;;;4206810;34;20520;-60
2021/04/06 09:57:18;;;;;;;19.75;12.55;;;;;;;;;;4206473;34;20117;-59
2021/04/06 09:59:50;;;;;;;19.20;11.32;;;;;;;;;;4195437;34;20117;-61
2021/04/06 10:02:20;;;;;;;12.73;8.73;;;;;;;;;;4184339;34;20121;-59
2021/04/06 10:04:47;;;;;;;8.30;6.15;;;;;;;;;;4194947;34;20114;-58
2021/04/06 10:07:23;;;;;;;9.73;6.50;;;;;;;;;;4206164;34;20105;-59
2021/04/06 10:09:50;;;;;;;10.55;6.20;;;;;;;;;;4184493;34;20097;-58
2021/04/06 10:12:17;;;;;;;11.10;6.87;;;;;;;;;;4194880;34;20113;-57
2021/04/06 10:14:43;;;;;;;10.80;7.93;;;;;;;;;;4206336;34;20590;-59
2021/04/06 10:17:11;;;;;;;15.85;10.80;;;;;;;;;;4206116;34;20129;-62
2021/04/06 10:19:40;;;;;;;15.93;9.48;;;;;;;;;;4219100;34;20221;-61
2021/04/06 10:22:07;;;;;;;11.68;8.35;;;;;;;;;;4219212;34;20094;-59
2021/04/06 10:24:36;;;;;;;5.32;4.45;;;;;;;;;;4194058;34;20113;-59
2021/04/06 10:27:08;;;;;;;7.12;4.25;;;;;;;;;;4194807;34;20205;-60
2021/04/06 10:29:35;;;;;;;8.52;5.15;;;;;;;;;;4194713;34;20521;-62
2021/04/06 10:32:02;;;;;;;12.15;8.13;;;;;;;;;;4194548;34;20446;-59
2021/04/06 10:34:29;;;;;;;8.90;5.70;;;;;;;;;;4194684;34;20090;-60
2021/04/06 10:37:07;;;;;;;10.70;6.10;;;;;;;;;;4205897;34;20125;-60
2021/04/06 10:39:43;;;;;;;15.50;8.30;;;;;;;;;;4219074;34;20116;-61
2021/04/06 10:42:11;;;;;;;17.30;11.07;;;;;;;;;;4219112;34;20127;-62
2021/04/06 10:44:37;;;;;;;13.18;9.63;;;;;;;;;;4218992;34;20144;-61
2021/04/06 10:47:03;;;;;;;9.68;6.93;;;;;;;;;;4194561;34;20117;-59
2021/04/06 10:49:29;;;;;;;13.35;7.32;;;;;;;;;;4219001;34;20197;-61
2021/04/06 10:51:57;;;;;;;8.30;4.37;;;;;;;;;;4206234;34;20153;-61
2021/04/06 10:54:23;;;;;;;17.48;7.62;;;;;;;;;;4206367;34;20117;-63
2021/04/06 10:56:57;;;;;;;11.93;5.68;;;;;;;;;;4206058;34;20534;-63
2021/04/06 10:59:34;;;;;;;22.67;11.65;;;;;;;;;;4219079;34;20545;-62
2021/04/06 11:02:00;;;;;;;20.40;8.75;;;;;;;;;;4218939;34;20208;-62
2021/04/06 11:04:37;;;;;;;27.00;10.10;;;;;;;;;;4206020;34;20537;-61
2021/04/06 11:07:04;;;;;;;21.50;10.90;;;;;;;;;;4171329;34;20116;-62
2021/04/06 11:09:40;;;;;;;30.95;12.05;;;;;;;;;;4206000;34;20244;-61
2021/04/06 11:12:07;;;;;;;9.23;5.03;;;;;;;;;;4205853;34;20576;-61
2021/04/06 11:14:34;;;;;;;23.85;10.10;;;;;;;;;;4205857;34;20233;-61
2021/04/06 11:17:04;;;;;;;23.48;11.18;;;;;;;;;;4218504;34;20101;-61
2021/04/06 11:19:31;;;;;;;20.52;8.90;;;;;;;;;;4183791;34;20091;-62
2021/04/06 11:22:11;;;;;;;27.85;11.65;;;;;;;;;;4194399;34;20117;-62
2021/04/06 11:24:38;;;;;;;16.35;7.05;;;;;;;;;;4206021;34;20190;-62
2021/04/06 11:27:04;;;;;;;19.00;8.70;;;;;;;;;;4218624;34;20568;-61
2021/04/06 11:29:32;;;;;;;10.45;5.40;;;;;;;;;;4218711;34;20096;-64
2021/04/06 11:32:02;;;;;;;10.20;5.78;;;;;;;;;;4193880;34;20094;-61
2021/04/06 11:34:28;;;;;;;16.73;9.65;;;;;;;;;;4218421;34;20117;-61
2021/04/06 11:36:54;;;;;;;8.90;5.37;;;;;;;;;;4194268;34;20164;-62
2021/04/06 11:39:21;;;;;;;9.80;4.18;;;;;;;;;;4218629;34;20570;-60
2021/04/06 11:41:50;;;;;;;13.40;6.62;;;;;;;;;;4205675;34;20223;-62
2021/04/06 11:44:16;;;;;;;12.65;7.15;;;;;;;;;;4218810;34;20092;-61
2021/04/06 11:46:42;;;;;;;12.37;7.12;;;;;;;;;;4218650;34;20109;-61
2021/04/06 11:49:09;;;;;;;14.23;6.60;;;;;;;;;;4194389;34;20104;-62
2021/04/06 11:51:36;;;;;;;10.63;4.95;;;;;;;;;;4205432;34;20205;-62
2021/04/06 11:54:02;;;;;;;14.10;8.10;;;;;;;;;;4194059;34;20109;-63
2021/04/06 11:56:28;;;;;;;8.70;5.65;;;;;;;;;;4205333;34;20106;-62
2021/04/06 11:58:54;;;;;;;12.07;7.90;;;;;;;;;;4193992;34;20128;-61
2021/04/06 12:01:20;;;;;;;12.77;8.65;;;;;;;;;;4205109;34;20117;-60
2021/04/06 12:03:46;;;;;;;11.93;5.30;;;;;;;;;;4218602;34;20649;-60
2021/04/06 12:06:12;;;;;;;8.65;6.45;;;;;;;;;;4182525;34;20121;-60
2021/04/06 12:08:41;;;;;;;9.10;6.62;;;;;;;;;;4193864;34;20117;-60
2021/04/06 12:11:07;;;;;;;9.70;6.35;;;;;;;;;;4194345;34;20113;-61
2021/04/06 12:13:33;;;;;;;13.35;7.62;;;;;;;;;;4205397;34;20245;-60
2021/04/06 12:15:59;;;;;;;10.93;5.95;;;;;;;;;;4218187;34;20126;-59
2021/04/06 12:18:26;;;;;;;13.32;6.05;;;;;;;;;;4193525;34;20135;-60
2021/04/06 12:20:52;;;;;;;11.15;6.32;;;;;;;;;;4218123;34;20117;-61
2021/04/06 12:23:18;;;;;;;9.73;6.15;;;;;;;;;;4205443;34;20116;-60
2021/04/06 12:25:44;;;;;;;12.07;7.50;;;;;;;;;;4205224;34;20108;-61
2021/04/06 12:28:10;;;;;;;15.25;7.97;;;;;;;;;;4193682;34;20534;-61
2021/04/06 12:30:36;;;;;;;10.55;6.12;;;;;;;;;;4217924;34;20196;-62
2021/04/06 12:33:02;;;;;;;15.00;10.55;;;;;;;;;;4205069;34;20133;-61
2021/04/06 12:35:28;;;;;;;15.82;10.13;;;;;;;;;;4193371;34;20133;-61
2021/04/06 12:37:56;;;;;;;16.83;11.52;;;;;;;;;;4217624;34;20101;-61
2021/04/06 12:40:22;;;;;;;6.70;5.45;;;;;;;;;;4193478;34;20236;-60
2021/04/06 12:42:48;;;;;;;11.30;8.65;;;;;;;;;;4217982;34;20550;-60
2021/04/06 12:45:15;;;;;;;10.35;7.20;;;;;;;;;;4204998;34;20093;-62
2021/04/06 12:47:41;;;;;;;7.90;6.55;;;;;;;;;;4219479;34;20557;-61
2021/04/06 12:50:08;;;;;;;9.93;5.75;;;;;;;;;;4172696;34;20128;-60
2021/04/06 12:52:34;;;;;;;11.55;9.18;;;;;;;;;;4195847;34;20117;-60
2021/04/06 12:55:00;;;;;;;12.57;7.45;;;;;;;;;;4219961;34;20542;-60
2021/04/06 12:57:25;;;;;;;9.70;7.43;;;;;;;;;;4195049;34;20125;-61
2021/04/06 13:00:01;;;;;;;10.20;7.87;;;;;;;;;;4184369;34;20121;-62
2021/04/06 13:02:29;;;;;;;14.68;7.32;;;;;;;;;;4207082;34;20105;-64
2021/04/06 13:05:04;;;;;;;10.00;6.15;;;;;;;;;;4207097;34;20461;-62
2021/04/06 13:07:43;;;;;;;13.13;9.55;;;;;;;;;;4196373;34;20254;-62
2021/04/06 13:10:10;;;;;;;11.25;7.78;;;;;;;;;;4195376;34;20119;-62
2021/04/06 13:12:36;;;;;;;16.15;8.68;;;;;;;;;;4206973;34;20115;-61
2021/04/06 13:15:02;;;;;;;17.27;8.15;;;;;;;;;;4219887;34;20102;-63
2021/04/06 13:17:28;;;;;;;18.65;9.50;;;;;;;;;;4219737;34;20094;-63
2021/04/06 13:19:54;;;;;;;11.75;5.72;;;;;;;;;;4206831;34;20105;-59
2021/04/06 13:22:20;;;;;;;9.27;5.22;;;;;;;;;;4206778;34;20177;-60
2021/04/06 13:24:46;;;;;;;9.00;6.07;;;;;;;;;;4195349;34;20181;-60
2021/04/06 13:27:12;;;;;;;6.70;4.75;;;;;;;;;;4206688;34;20145;-60
2021/04/06 13:29:38;;;;;;;9.73;5.35;;;;;;;;;;4195334;34;20109;-61
2021/04/06 13:32:05;;;;;;;7.65;4.62;;;;;;;;;;4206747;34;20102;-61
2021/04/06 13:34:30;;;;;;;5.68;4.15;;;;;;;;;;4219600;34;20105;-60
2021/04/06 13:36:56;;;;;;;5.47;3.70;;;;;;;;;;4206387;34;20100;-60
2021/04/06 13:39:23;;;;;;;4.55;4.15;;;;;;;;;;4183670;34;20117;-60
2021/04/06 13:41:48;;;;;;;4.00;3.55;;;;;;;;;;4195382;34;20113;-60
2021/04/06 13:44:14;;;;;;;4.68;3.33;;;;;;;;;;4219352;34;20128;-60
2021/04/06 13:46:40;;;;;;;4.57;3.50;;;;;;;;;;4219316;34;20522;-61
2021/04/06 13:49:06;;;;;;;4.15;3.62;;;;;;;;;;4206508;34;20143;-61
2021/04/06 13:51:33;;;;;;;5.32;3.95;;;;;;;;;;4194719;34;20110;-62
2021/04/06 13:53:59;;;;;;;5.43;4.35;;;;;;;;;;4195061;34;20110;-60
2021/04/06 13:56:25;;;;;;;5.75;4.25;;;;;;;;;;4194896;34;20574;-59
2021/04/06 13:58:51;;;;;;;4.57;4.18;;;;;;;;;;4195169;34;20523;-60
2021/04/06 14:01:17;;;;;;;7.15;4.55;;;;;;;;;;4206384;34;20137;-62
2021/04/06 14:03:43;;;;;;;7.05;4.80;;;;;;;;;;4194872;34;20124;-61
2021/04/06 14:06:09;;;;;;;7.72;5.70;;;;;;;;;;4194854;34;20175;-61
2021/04/06 14:08:35;;;;;;;5.95;5.25;;;;;;;;;;4194776;34;20549;-61
2021/04/06 14:11:01;;;;;;;6.18;5.40;;;;;;;;;;4183304;34;20197;-61
2021/04/06 14:13:27;;;;;;;9.20;6.18;;;;;;;;;;4219584;34;20109;-62
2021/04/06 14:15:53;;;;;;;9.70;7.37;;;;;;;;;;4218946;34;20136;-59
2021/04/06 14:18:19;;;;;;;11.93;6.45;;;;;;;;;;4219444;34;20104;-59
2021/04/06 14:20:47;;;;;;;10.63;6.75;;;;;;;;;;4206126;34;20113;-59
2021/04/06 14:23:19;;;;;;;9.38;7.00;;;;;;;;;;4219390;34;20125;-58
2021/04/06 14:25:45;;;;;;;13.82;8.88;;;;;;;;;;4206193;34;20121;-60
2021/04/06 14:28:12;;;;;;;13.18;8.27;;;;;;;;;;4206375;34;20219;-60
2021/04/06 14:30:41;;;;;;;17.27;10.95;;;;;;;;;;4194802;34;20113;-61
2021/04/06 14:33:09;;;;;;;12.52;8.43;;;;;;;;;;4183628;34;20101;-61
2021/04/06 14:35:35;;;;;;;8.13;5.70;;;;;;;;;;4194627;34;20113;-61
2021/04/06 14:38:01;;;;;;;4.53;4.12;;;;;;;;;;4194616;34;20112;-61
2021/04/06 14:40:27;;;;;;;5.43;3.83;;;;;;;;;;4218831;34;20173;-60
2021/04/06 14:43:12;;;;;;;4.62;4.12;;;;;;;;;;4219275;34;20109;-59
2021/04/06 14:45:39;;;;;;;4.15;3.65;;;;;;;;;;4206463;34;20533;-62
2021/04/06 14:48:05;;;;;;;4.20;3.80;;;;;;;;;;4219058;34;20137;-63
2021/04/06 14:50:31;;;;;;;4.97;4.40;;;;;;;;;;4218851;34;20600;-61
2021/04/06 14:52:57;;;;;;;5.57;4.30;;;;;;;;;;4219191;34;20117;-62